This is the latest recevied weather packets stored in our database for station/object eb1ayw-13. If no packets are shown the sender has not sent any weather packets the latest 10 day(s).
| Time | Temp. | Humidity | Pressure | Rain* | Wind** | Luminosity | Snow |
|---|---|---|---|---|---|---|---|
| 1777531256 | 50° C | 13% | 1002.4 hPa | - | - | - | - |
| 1777530656 | 48.33° C | 15% | 1002.8 hPa | - | - | - | - |
| 1777530056 | 44.44° C | 17% | 1003.5 hPa | - | - | - | - |
| 1777529456 | 42.22° C | 18% | 1004 hPa | - | - | - | - |
| 1777528856 | 42.78° C | 17% | 1003.7 hPa | - | - | - | - |
| 1777528256 | 44.44° C | 16% | 1003.2 hPa | - | - | - | - |
| 1777527656 | 47.78° C | 15% | 1002.3 hPa | - | - | - | - |
| 1777527056 | 44.44° C | 16% | 1003 hPa | - | - | - | - |
| 1777526457 | 46.11° C | 15% | 1002.6 hPa | - | - | - | - |
| 1777525856 | 47.78° C | 14% | 1002 hPa | - | - | - | - |
| 1777525256 | 47.22° C | 15% | 1002.2 hPa | - | - | - | - |
| 1777524656 | 47.78° C | 14% | 1002 hPa | - | - | - | - |
| 1777524056 | 46.11° C | 15% | 1002.1 hPa | - | - | - | - |
| 1777523456 | 44.44° C | 16% | 1002.4 hPa | - | - | - | - |
| 1777522856 | 47.78° C | 14% | 1001.7 hPa | - | - | - | - |
| 1777522256 | 46.11° C | 15% | 1002 hPa | - | - | - | - |
| 1777521656 | 47.22° C | 15% | 1001.8 hPa | - | - | - | - |
| 1777521056 | 46.11° C | 16% | 1001.9 hPa | - | - | - | - |
| 1777520456 | 50.56° C | 13% | 1000.9 hPa | - | - | - | - |
| 1777519856 | 41.11° C | 19% | 1003.2 hPa | - | - | - | - |
| 1777519256 | 47.22° C | 15% | 1001.6 hPa | - | - | - | - |
| 1777518656 | 51.11° C | 13% | 1000.6 hPa | - | - | - | - |
| 1777518056 | 47.22° C | 15% | 1001.4 hPa | - | - | - | - |
| 1777517456 | 48.33° C | 14% | 1001.2 hPa | - | - | - | - |
| 1777516856 | 48.89° C | 14% | 1001 hPa | - | - | - | - |
* Rain since midnight (hover to see other rain measurements)
** Current wind speed in m/s (hover to see current wind gust speed)